createdAt,value
2019-02-09T00:00:39.893Z,7.26
2019-02-09T00:01:39.864Z,7.26
2019-02-09T00:02:39.858Z,7.25
2019-02-09T00:03:39.828Z,7.22
2019-02-09T00:04:39.842Z,7.22
2019-02-09T00:05:39.797Z,7.22
2019-02-09T00:06:39.789Z,7.18
2019-02-09T00:07:39.778Z,7.15
2019-02-09T00:08:39.742Z,7.13
2019-02-09T00:09:39.766Z,7.11
2019-02-09T00:10:39.735Z,7.10
2019-02-09T00:11:39.686Z,7.10
2019-02-09T00:12:39.679Z,7.07
2019-02-09T00:13:39.653Z,7.04
2019-02-09T00:14:39.645Z,7.03
2019-02-09T00:15:39.690Z,7.00
2019-02-09T00:16:39.593Z,7.00
2019-02-09T00:17:39.577Z,6.96
2019-02-09T00:18:39.558Z,6.90
2019-02-09T00:19:39.546Z,6.89
2019-02-09T00:20:39.531Z,6.89
2019-02-09T00:21:39.521Z,6.86
2019-02-09T00:22:39.488Z,6.85
2019-02-09T00:23:39.488Z,6.83
2019-02-09T00:24:39.458Z,6.78
2019-02-09T00:25:39.440Z,6.78
2019-02-09T00:26:39.495Z,6.77
2019-02-09T00:27:39.407Z,6.74
2019-02-09T00:28:39.405Z,6.72
2019-02-09T00:29:46.183Z,6.71
2019-02-09T00:30:39.340Z,6.70
2019-02-09T00:31:39.319Z,6.68
2019-02-09T00:32:39.442Z,6.68
2019-02-09T00:33:39.293Z,6.67
2019-02-09T00:34:39.272Z,6.65
2019-02-09T00:35:39.254Z,6.64
2019-02-09T00:36:39.245Z,6.65
2019-02-09T00:37:39.214Z,6.67
2019-02-09T00:38:39.234Z,6.65
2019-02-09T00:39:39.219Z,6.62
2019-02-09T00:40:39.167Z,6.62
2019-02-09T00:41:39.137Z,6.60
2019-02-09T00:42:39.123Z,6.60
2019-02-09T00:43:39.102Z,6.60
2019-02-09T00:44:39.093Z,6.59
2019-02-09T00:45:39.076Z,6.59
2019-02-09T00:46:39.044Z,6.59
2019-02-09T00:47:39.038Z,6.59
2019-02-09T00:48:39.166Z,6.59
2019-02-09T00:49:38.991Z,6.56
2019-02-09T00:50:38.974Z,6.54
2019-02-09T00:51:38.957Z,6.56
2019-02-09T00:52:38.942Z,6.56
2019-02-09T00:53:38.924Z,6.54
2019-02-09T00:54:38.906Z,6.53
2019-02-09T00:55:38.882Z,6.53
2019-02-09T00:56:38.867Z,6.53
2019-02-09T00:57:38.850Z,6.52
2019-02-09T00:58:38.840Z,6.53
2019-02-09T00:59:38.851Z,6.52
2019-02-09T01:00:38.848Z,6.53
2019-02-09T01:01:38.768Z,6.52
2019-02-09T01:02:38.747Z,6.52
2019-02-09T01:03:38.742Z,6.52
2019-02-09T01:04:38.722Z,6.52
2019-02-09T01:05:38.705Z,6.50
2019-02-09T01:06:38.687Z,6.50
2019-02-09T01:07:38.670Z,6.50
2019-02-09T01:08:38.659Z,6.53
2019-02-09T01:09:38.633Z,6.53
2019-02-09T01:10:38.602Z,6.53
2019-02-09T01:11:38.620Z,6.52
2019-02-09T01:12:38.565Z,6.52
2019-02-09T01:13:38.561Z,6.52
2019-02-09T01:14:38.542Z,6.49
2019-02-09T01:15:38.517Z,6.49
2019-02-09T01:16:38.630Z,6.47
2019-02-09T01:17:38.470Z,6.49
2019-02-09T01:18:38.457Z,6.49
2019-02-09T01:19:38.448Z,6.46
2019-02-09T01:20:38.429Z,6.46
2019-02-09T01:21:38.403Z,6.46
2019-02-09T01:22:38.448Z,6.47
2019-02-09T01:23:38.376Z,6.46
2019-02-09T01:24:38.350Z,6.46
2019-02-09T01:25:38.320Z,6.44
2019-02-09T01:26:38.311Z,6.44
2019-02-09T01:27:38.296Z,6.43
2019-02-09T01:28:38.298Z,6.43
2019-02-09T01:29:38.255Z,6.44
2019-02-09T01:30:38.247Z,6.43
2019-02-09T01:31:38.213Z,6.43
2019-02-09T01:32:38.272Z,6.41
2019-02-09T01:33:38.178Z,6.39
2019-02-09T01:34:38.160Z,6.41
2019-02-09T01:35:38.149Z,6.38
2019-02-09T01:36:38.119Z,6.38
2019-02-09T01:37:38.112Z,6.38
2019-02-09T01:38:38.126Z,6.38
2019-02-09T01:39:38.060Z,6.38
2019-02-09T01:40:38.079Z,6.36
2019-02-09T01:41:38.030Z,6.38
2019-02-09T01:42:38.003Z,6.36
2019-02-09T01:43:37.996Z,6.35
2019-02-09T01:44:37.967Z,6.35
2019-02-09T01:45:38.027Z,6.35
2019-02-09T01:46:37.938Z,6.34
2019-02-09T01:47:37.909Z,6.34
2019-02-09T01:48:37.906Z,6.34
2019-02-09T01:49:37.888Z,6.32
2019-02-09T01:50:37.863Z,6.34
2019-02-09T01:51:37.858Z,6.32
2019-02-09T01:52:37.818Z,6.34
2019-02-09T01:53:37.801Z,6.34
2019-02-09T01:54:37.792Z,6.34
2019-02-09T01:55:37.772Z,6.34
2019-02-09T01:56:37.778Z,6.34
2019-02-09T01:57:37.758Z,6.34
2019-02-09T01:58:37.747Z,6.32
2019-02-09T01:59:37.685Z,6.32
2019-02-09T02:00:37.689Z,6.32
2019-02-09T02:01:37.644Z,6.31
2019-02-09T02:02:37.633Z,6.32
2019-02-09T02:03:37.651Z,6.32
2019-02-09T02:04:37.602Z,6.32
2019-02-09T02:05:37.577Z,6.32
2019-02-09T02:06:37.564Z,6.34
2019-02-09T02:07:37.535Z,6.34
2019-02-09T02:08:37.519Z,6.34
2019-02-09T02:09:37.521Z,6.34
2019-02-09T02:10:37.495Z,6.34
2019-02-09T02:11:37.458Z,6.32
2019-02-09T02:12:37.443Z,6.34
2019-02-09T02:13:37.436Z,6.32
2019-02-09T02:14:37.446Z,6.32
2019-02-09T02:15:37.387Z,6.32
2019-02-09T02:16:37.369Z,6.32
2019-02-09T02:17:37.347Z,6.31
2019-02-09T02:18:37.341Z,6.31
2019-02-09T02:19:37.457Z,6.31
2019-02-09T02:20:37.290Z,6.31
2019-02-09T02:21:37.271Z,6.31
2019-02-09T02:22:37.253Z,6.31
2019-02-09T02:23:37.249Z,6.29
2019-02-09T02:24:37.219Z,6.31
2019-02-09T02:25:37.238Z,6.31
2019-02-09T02:26:37.185Z,6.28
2019-02-09T02:27:37.313Z,6.29
2019-02-09T02:28:37.141Z,6.29
2019-02-09T02:29:37.128Z,6.29
2019-02-09T02:30:37.103Z,6.29
2019-02-09T02:31:37.099Z,6.29
2019-02-09T02:32:37.088Z,6.29
2019-02-09T02:33:37.077Z,6.29
2019-02-09T02:34:37.034Z,6.29
2019-02-09T02:35:37.043Z,6.29
2019-02-09T02:36:37.004Z,6.31
2019-02-09T02:37:37.016Z,6.29
2019-02-09T02:38:36.959Z,6.29
2019-02-09T02:39:36.933Z,6.31
2019-02-09T02:40:36.924Z,6.32
2019-02-09T02:41:36.909Z,6.35
2019-02-09T02:42:36.909Z,6.35
2019-02-09T02:43:36.856Z,6.36
2019-02-09T02:44:36.864Z,6.34
2019-02-09T02:45:36.831Z,6.32
2019-02-09T02:46:36.818Z,6.35
2019-02-09T02:47:37.589Z,6.34
2019-02-09T02:48:36.768Z,6.34
2019-02-09T02:49:36.746Z,6.34
2019-02-09T02:50:36.741Z,6.32
2019-02-09T02:51:36.735Z,6.34
2019-02-09T02:52:36.694Z,6.32
2019-02-09T02:53:36.695Z,6.32
2019-02-09T02:54:36.647Z,6.32
2019-02-09T02:55:36.633Z,6.32
2019-02-09T02:56:36.622Z,6.35
2019-02-09T02:57:36.606Z,6.35
2019-02-09T02:58:36.588Z,6.31
2019-02-09T02:59:36.558Z,6.34
2019-02-09T03:00:36.556Z,6.34
2019-02-09T03:01:36.527Z,6.35
2019-02-09T03:02:36.549Z,6.34
2019-02-09T03:03:36.486Z,6.34
2019-02-09T03:04:36.475Z,6.32
2019-02-09T03:05:36.467Z,6.32
2019-02-09T03:06:36.506Z,6.31
2019-02-09T03:07:36.410Z,6.31
2019-02-09T03:08:36.396Z,6.31
2019-02-09T03:09:36.384Z,6.31
2019-02-09T03:10:36.360Z,6.32
2019-02-09T03:11:36.344Z,6.31
2019-02-09T03:12:36.334Z,6.32
2019-02-09T03:13:36.327Z,6.31
2019-02-09T03:14:36.292Z,6.29
2019-02-09T03:15:36.266Z,6.29
2019-02-09T03:16:36.242Z,6.31
2019-02-09T03:17:36.363Z,6.31
2019-02-09T03:18:36.207Z,6.31
2019-02-09T03:19:36.200Z,6.31
2019-02-09T03:20:36.165Z,6.31
2019-02-09T03:21:36.152Z,6.29
2019-02-09T03:22:36.168Z,6.31
2019-02-09T03:23:36.151Z,6.31
2019-02-09T03:24:36.095Z,6.32
2019-02-09T03:25:36.081Z,6.31
2019-02-09T03:26:36.065Z,6.32
2019-02-09T03:27:36.036Z,6.34
2019-02-09T03:28:36.032Z,6.32
2019-02-09T03:29:36.019Z,6.34
2019-02-09T03:30:46.720Z,6.34
2019-02-09T03:31:35.973Z,6.34
2019-02-09T03:32:35.955Z,6.34
2019-02-09T03:33:35.931Z,6.34
2019-02-09T03:34:35.915Z,6.35
2019-02-09T03:35:35.926Z,6.36
2019-02-09T03:36:35.870Z,6.35
2019-02-09T03:37:35.863Z,6.35
2019-02-09T03:38:35.839Z,6.36
2019-02-09T03:39:35.859Z,6.36
2019-02-09T03:40:35.805Z,6.36
2019-02-09T03:41:35.796Z,6.36
2019-02-09T03:42:35.755Z,6.39
2019-02-09T03:43:35.750Z,6.43
2019-02-09T03:44:35.712Z,6.41
2019-02-09T03:45:35.739Z,6.43
2019-02-09T03:46:35.674Z,6.44
2019-02-09T03:47:35.664Z,6.47
2019-02-09T03:48:35.640Z,6.52
2019-02-09T03:49:35.641Z,6.54
2019-02-09T03:50:35.763Z,6.53
2019-02-09T03:51:35.589Z,6.52
2019-02-09T03:52:35.579Z,6.52
2019-02-09T03:53:35.555Z,6.54
2019-02-09T03:54:35.531Z,6.57
2019-02-09T03:55:35.519Z,6.65
2019-02-09T03:56:35.498Z,6.67
2019-02-09T03:57:35.484Z,6.67
2019-02-09T03:58:35.456Z,6.71
2019-02-09T03:59:35.437Z,6.70
2019-02-09T04:00:35.414Z,6.67
2019-02-09T04:01:35.417Z,6.65
2019-02-09T04:02:35.382Z,6.65
2019-02-09T04:03:35.359Z,6.62
2019-02-09T04:04:35.350Z,6.60
2019-02-09T04:05:35.337Z,6.59
2019-02-09T04:06:35.310Z,6.64
2019-02-09T04:07:35.300Z,6.65
2019-02-09T04:08:35.279Z,6.67
2019-02-09T04:09:35.259Z,6.67
2019-02-09T04:10:35.229Z,6.62
2019-02-09T04:11:35.258Z,6.62
2019-02-09T04:12:35.206Z,6.62
2019-02-09T04:13:35.211Z,6.60
2019-02-09T04:14:35.161Z,6.57
2019-02-09T04:15:35.140Z,6.56
2019-02-09T04:16:35.127Z,6.59
2019-02-09T04:17:35.100Z,6.67
2019-02-09T04:18:35.127Z,6.71
2019-02-09T04:19:35.080Z,6.71
2019-02-09T04:20:35.054Z,6.72
2019-02-09T04:21:35.024Z,6.74
2019-02-09T04:22:35.018Z,6.71
2019-02-09T04:23:35.025Z,6.74
2019-02-09T04:24:34.981Z,6.75
2019-02-09T04:25:34.963Z,6.83
2019-02-09T04:26:34.985Z,6.83
2019-02-09T04:27:34.934Z,6.83
2019-02-09T04:28:34.924Z,6.83
2019-02-09T04:29:34.920Z,6.83
2019-02-09T04:30:34.860Z,6.85
2019-02-09T04:31:34.845Z,6.85
2019-02-09T04:32:34.821Z,6.85
2019-02-09T04:33:34.810Z,6.85
2019-02-09T04:34:34.809Z,6.85
2019-02-09T04:35:34.784Z,6.83
2019-02-09T04:36:34.754Z,6.80
2019-02-09T04:37:34.722Z,6.77
2019-02-09T04:38:34.714Z,6.77
2019-02-09T04:39:34.716Z,6.80
2019-02-09T04:40:34.681Z,6.83
2019-02-09T04:41:34.655Z,6.83
2019-02-09T04:42:34.686Z,6.82
2019-02-09T04:43:34.621Z,6.77
2019-02-09T04:44:34.603Z,6.75
2019-02-09T04:45:34.578Z,6.74
2019-02-09T04:46:34.568Z,6.72
2019-02-09T04:47:34.544Z,6.72
2019-02-09T04:48:34.555Z,6.72
2019-02-09T04:49:34.509Z,6.70
2019-02-09T04:50:34.492Z,6.67
2019-02-09T04:51:34.487Z,6.62
2019-02-09T04:52:34.480Z,6.62
2019-02-09T04:53:34.454Z,6.60
2019-02-09T04:54:34.413Z,6.60
2019-02-09T04:55:34.406Z,6.62
2019-02-09T04:56:34.384Z,6.64
2019-02-09T04:57:34.348Z,6.67
2019-02-09T04:58:34.367Z,6.64
2019-02-09T04:59:34.322Z,6.64
2019-02-09T05:00:34.303Z,6.62
2019-02-09T05:01:34.282Z,6.62
2019-02-09T05:02:34.255Z,6.60
2019-02-09T05:03:34.307Z,6.60
2019-02-09T05:04:34.226Z,6.57
2019-02-09T05:05:34.202Z,6.62
2019-02-09T05:06:34.184Z,6.65
2019-02-09T05:07:34.174Z,6.68
2019-02-09T05:08:34.147Z,6.74
2019-02-09T05:09:34.132Z,6.77
2019-02-09T05:10:34.110Z,6.80
2019-02-09T05:11:34.105Z,6.85
2019-02-09T05:12:34.067Z,6.85
2019-02-09T05:13:34.057Z,6.83
2019-02-09T05:14:34.069Z,6.85
2019-02-09T05:15:34.042Z,6.83
2019-02-09T05:16:33.999Z,6.83
2019-02-09T05:17:33.979Z,6.85
2019-02-09T05:18:33.953Z,6.86
2019-02-09T05:19:33.939Z,6.85
2019-02-09T05:20:34.036Z,6.86
2019-02-09T05:21:33.909Z,6.95
2019-02-09T05:22:33.905Z,6.96
2019-02-09T05:23:33.871Z,6.93
2019-02-09T05:24:33.843Z,6.92
2019-02-09T05:25:33.824Z,6.95
2019-02-09T05:26:33.823Z,6.97
2019-02-09T05:27:33.822Z,6.96
2019-02-09T05:28:33.765Z,6.97
2019-02-09T05:29:33.754Z,7.00
2019-02-09T05:30:33.781Z,7.00
2019-02-09T05:31:33.755Z,7.01
2019-02-09T05:32:33.698Z,7.01
2019-02-09T05:33:33.674Z,7.04
2019-02-09T05:34:33.665Z,7.08
2019-02-09T05:35:33.655Z,7.11
2019-02-09T05:36:33.631Z,7.11
2019-02-09T05:37:33.617Z,7.11
2019-02-09T05:38:33.596Z,7.10
2019-02-09T05:39:33.861Z,7.13
2019-02-09T05:40:33.614Z,7.22
2019-02-09T05:41:33.525Z,7.18
2019-02-09T05:42:33.521Z,7.23
2019-02-09T05:43:33.494Z,7.25
2019-02-09T05:44:33.477Z,7.22
2019-02-09T05:45:33.460Z,7.15
2019-02-09T05:46:33.439Z,7.13
2019-02-09T05:47:33.427Z,7.07
2019-02-09T05:48:33.407Z,7.08
2019-02-09T05:49:33.381Z,7.07
2019-02-09T05:50:33.353Z,7.07
2019-02-09T05:51:33.377Z,7.08
2019-02-09T05:52:33.330Z,7.08
2019-02-09T05:53:33.295Z,7.08
2019-02-09T05:54:33.290Z,7.13
2019-02-09T05:55:33.301Z,7.18
2019-02-09T05:56:33.248Z,7.18
2019-02-09T05:57:33.238Z,7.18
2019-02-09T05:58:33.202Z,7.19
2019-02-09T05:59:33.260Z,7.22
2019-02-09T06:00:33.176Z,7.21
2019-02-09T06:01:33.165Z,7.22
2019-02-09T06:02:33.151Z,7.22
2019-02-09T06:03:33.121Z,7.22
2019-02-09T06:04:33.094Z,7.13
2019-02-09T06:05:33.107Z,7.08
2019-02-09T06:06:33.053Z,7.00
2019-02-09T06:07:33.046Z,6.90
2019-02-09T06:08:33.031Z,6.82
2019-02-09T06:09:32.996Z,6.77
2019-02-09T06:10:33.005Z,6.72
2019-02-09T06:11:32.978Z,6.68
2019-02-09T06:12:32.951Z,6.64
2019-02-09T06:13:32.916Z,6.56
2019-02-09T06:14:32.924Z,6.49
2019-02-09T06:15:32.895Z,6.46
2019-02-09T06:16:32.877Z,6.43
2019-02-09T06:17:32.862Z,6.41
2019-02-09T06:18:32.837Z,6.44
2019-02-09T06:19:32.817Z,6.47
2019-02-09T06:20:32.805Z,6.47
2019-02-09T06:21:32.784Z,6.46
2019-02-09T06:22:32.766Z,6.41
2019-02-09T06:23:32.744Z,6.39
2019-02-09T06:24:32.725Z,6.36
2019-02-09T06:25:32.705Z,6.41
2019-02-09T06:26:32.684Z,6.41
2019-02-09T06:27:32.666Z,6.46
2019-02-09T06:28:32.643Z,6.46
2019-02-09T06:29:32.631Z,6.50
2019-02-09T06:30:32.607Z,6.56
2019-02-09T06:31:40.281Z,6.60
2019-02-09T06:32:32.607Z,6.67
2019-02-09T06:33:32.572Z,6.72
2019-02-09T06:34:32.538Z,6.83
2019-02-09T06:35:32.517Z,6.86
2019-02-09T06:36:32.484Z,6.90
2019-02-09T06:37:32.465Z,6.90
2019-02-09T06:38:32.481Z,6.86
2019-02-09T06:39:32.427Z,6.83
2019-02-09T06:40:32.420Z,6.86
2019-02-09T06:41:32.411Z,6.87
2019-02-09T06:42:32.377Z,6.89
2019-02-09T06:43:32.504Z,6.90
2019-02-09T06:44:32.333Z,6.93
2019-02-09T06:45:32.319Z,6.92
2019-02-09T06:46:32.304Z,6.89
2019-02-09T06:47:32.279Z,6.85
2019-02-09T06:48:32.265Z,6.85
2019-02-09T06:49:32.324Z,6.86
2019-02-09T06:50:32.216Z,6.87
2019-02-09T06:51:32.210Z,6.87
2019-02-09T06:52:32.180Z,6.89
2019-02-09T06:53:32.179Z,6.97
2019-02-09T06:54:32.203Z,7.03
2019-02-09T06:55:32.128Z,7.01
2019-02-09T06:56:32.112Z,7.01
2019-02-09T06:57:32.096Z,6.96
2019-02-09T06:58:32.064Z,7.00
2019-02-09T06:59:32.059Z,7.00
2019-02-09T07:00:32.055Z,6.96
2019-02-09T07:01:32.024Z,7.01
2019-02-09T07:02:31.995Z,7.01
2019-02-09T07:03:31.973Z,7.00
2019-02-09T07:04:31.959Z,7.00
2019-02-09T07:05:31.950Z,6.97
2019-02-09T07:06:31.952Z,6.96
2019-02-09T07:07:31.896Z,6.96
2019-02-09T07:08:31.876Z,7.01
2019-02-09T07:09:31.856Z,7.05
2019-02-09T07:10:31.851Z,7.05
2019-02-09T07:11:31.825Z,7.13
2019-02-09T07:12:31.809Z,7.14
2019-02-09T07:13:31.783Z,7.10
2019-02-09T07:14:31.764Z,7.08
2019-02-09T07:15:31.766Z,7.10
2019-02-09T07:16:31.780Z,7.07
2019-02-09T07:17:31.707Z,7.05
2019-02-09T07:18:31.696Z,7.05
2019-02-09T07:19:31.672Z,7.04
2019-02-09T07:20:31.666Z,7.01
2019-02-09T07:21:31.639Z,7.01
2019-02-09T07:22:31.682Z,7.01
2019-02-09T07:23:31.596Z,7.01
2019-02-09T07:24:31.581Z,7.00
2019-02-09T07:25:31.565Z,7.07
2019-02-09T07:26:31.550Z,7.07
2019-02-09T07:27:31.526Z,7.13
2019-02-09T07:28:31.505Z,7.14
2019-02-09T07:29:31.481Z,7.10
2019-02-09T07:30:31.475Z,7.07
2019-02-09T07:31:31.458Z,7.03
2019-02-09T07:32:31.462Z,7.01
2019-02-09T07:33:31.418Z,7.01
2019-02-09T07:34:31.409Z,7.00
2019-02-09T07:35:31.386Z,7.00
2019-02-09T07:36:31.363Z,7.01
2019-02-09T07:37:31.364Z,7.00
2019-02-09T07:38:31.319Z,7.04
2019-02-09T07:39:31.297Z,7.05
2019-02-09T07:40:31.286Z,7.04
2019-02-09T07:41:31.265Z,7.04
2019-02-09T07:42:32.142Z,7.08
2019-02-09T07:43:31.259Z,7.10
2019-02-09T07:44:31.236Z,7.14
2019-02-09T07:45:31.197Z,7.26
2019-02-09T07:46:31.165Z,7.28
2019-02-09T07:47:31.159Z,7.23
2019-02-09T07:48:31.142Z,7.21
2019-02-09T07:49:31.156Z,7.22
2019-02-09T07:50:31.132Z,7.21
2019-02-09T07:51:31.082Z,7.22
2019-02-09T07:52:31.052Z,7.25
2019-02-09T07:53:31.049Z,7.29
2019-02-09T07:54:31.058Z,7.32
2019-02-09T07:55:31.040Z,7.33
2019-02-09T07:56:30.987Z,7.36
2019-02-09T07:57:30.969Z,7.37
2019-02-09T07:58:30.943Z,7.36
2019-02-09T07:59:30.937Z,7.36
2019-02-09T08:00:30.917Z,7.39
2019-02-09T08:01:30.883Z,7.44
2019-02-09T08:02:30.917Z,7.44
2019-02-09T08:03:30.847Z,7.48
2019-02-09T08:04:30.844Z,7.50
2019-02-09T08:05:30.825Z,7.51
2019-02-09T08:06:30.815Z,7.48
2019-02-09T08:07:30.818Z,7.51
2019-02-09T08:08:30.756Z,7.55
2019-02-09T08:09:30.742Z,7.55
2019-02-09T08:10:30.727Z,7.50
2019-02-09T08:11:30.699Z,7.47
2019-02-09T08:12:30.751Z,7.48
2019-02-09T08:13:30.663Z,7.51
2019-02-09T08:14:30.659Z,7.56
2019-02-09T08:15:30.625Z,7.58
2019-02-09T08:16:30.611Z,7.58
2019-02-09T08:17:30.599Z,7.56
2019-02-09T08:18:30.577Z,7.59
2019-02-09T08:19:30.566Z,7.58
2019-02-09T08:20:30.549Z,7.59
2019-02-09T08:21:30.529Z,7.61
2019-02-09T08:22:30.558Z,7.62
2019-02-09T08:23:30.482Z,7.62
2019-02-09T08:24:30.481Z,7.66
2019-02-09T08:25:30.458Z,7.67
2019-02-09T08:26:30.425Z,7.67
2019-02-09T08:27:30.406Z,7.70
2019-02-09T08:28:30.407Z,7.74
2019-02-09T08:29:30.381Z,7.72
2019-02-09T08:30:30.365Z,7.75
2019-02-09T08:31:30.344Z,7.72
2019-02-09T08:32:30.313Z,7.67
2019-02-09T08:33:30.313Z,7.69
2019-02-09T08:34:30.306Z,7.74
2019-02-09T08:35:30.267Z,7.75
2019-02-09T08:36:30.279Z,7.72
2019-02-09T08:37:30.233Z,7.66
2019-02-09T08:38:30.263Z,7.66
2019-02-09T08:39:30.186Z,7.61
2019-02-09T08:40:30.180Z,7.58
2019-02-09T08:41:30.160Z,7.61
2019-02-09T08:42:30.143Z,7.59
2019-02-09T08:43:30.119Z,7.64
2019-02-09T08:44:30.127Z,7.72
2019-02-09T08:45:30.075Z,7.70
2019-02-09T08:46:30.055Z,7.72
2019-02-09T08:47:30.054Z,7.69
2019-02-09T08:48:30.035Z,7.67
2019-02-09T08:49:30.070Z,7.67
2019-02-09T08:50:29.987Z,7.66
2019-02-09T08:51:29.970Z,7.69
2019-02-09T08:52:29.950Z,7.72
2019-02-09T08:53:29.945Z,7.75
2019-02-09T08:54:29.910Z,7.78
2019-02-09T08:55:29.928Z,7.81
2019-02-09T08:56:29.880Z,7.77
2019-02-09T08:57:29.870Z,7.75
2019-02-09T08:58:29.845Z,7.74
2019-02-09T08:59:29.841Z,7.81
2019-02-09T09:00:29.877Z,7.84
2019-02-09T09:01:29.786Z,7.90
2019-02-09T09:02:29.784Z,7.95
2019-02-09T09:03:29.754Z,7.95
2019-02-09T09:04:29.723Z,7.90
2019-02-09T09:05:29.709Z,7.85
2019-02-09T09:06:29.700Z,7.84
2019-02-09T09:07:29.682Z,7.81
2019-02-09T09:08:29.665Z,7.81
2019-02-09T09:09:29.652Z,7.81
2019-02-09T09:10:29.632Z,7.87
2019-02-09T09:11:29.644Z,7.87
2019-02-09T09:12:29.581Z,7.84
2019-02-09T09:13:29.565Z,7.87
2019-02-09T09:14:29.548Z,7.88
2019-02-09T09:15:29.549Z,7.93
2019-02-09T09:16:29.717Z,7.95
2019-02-09T09:17:29.500Z,7.93
2019-02-09T09:18:29.480Z,7.93
2019-02-09T09:19:29.471Z,7.91
2019-02-09T09:20:29.541Z,7.95
2019-02-09T09:21:29.455Z,7.96
2019-02-09T09:22:29.442Z,8.01
2019-02-09T09:23:29.383Z,8.01
2019-02-09T09:24:29.374Z,8.05
2019-02-09T09:25:29.355Z,8.05
2019-02-09T09:26:29.340Z,8.06
2019-02-09T09:27:29.350Z,8.09
2019-02-09T09:28:29.314Z,8.14
2019-02-09T09:29:29.324Z,8.13
2019-02-09T09:30:29.278Z,8.14
2019-02-09T09:31:29.249Z,8.13
2019-02-09T09:32:29.232Z,8.13
2019-02-09T09:33:29.274Z,8.13
2019-02-09T09:34:29.204Z,8.13
2019-02-09T09:35:29.169Z,8.13
2019-02-09T09:36:29.167Z,8.14
2019-02-09T09:37:29.138Z,8.17
2019-02-09T09:38:29.115Z,8.18
2019-02-09T09:39:29.241Z,8.23
2019-02-09T09:40:29.080Z,8.21
2019-02-09T09:41:29.069Z,8.21
2019-02-09T09:42:29.062Z,8.21
2019-02-09T09:43:29.031Z,8.23
2019-02-09T09:44:29.004Z,8.23
2019-02-09T09:45:29.051Z,8.26
2019-02-09T09:46:28.969Z,8.26
2019-02-09T09:47:28.948Z,8.27
2019-02-09T09:48:28.933Z,8.28
2019-02-09T09:49:28.957Z,8.28
2019-02-09T09:50:28.925Z,8.31
2019-02-09T09:51:29.546Z,8.34
2019-02-09T09:52:28.874Z,8.35
2019-02-09T09:53:28.842Z,8.39
2019-02-09T09:54:28.833Z,8.45
2019-02-09T09:55:28.843Z,8.49
2019-02-09T09:56:28.832Z,8.52
2019-02-09T09:57:28.787Z,8.54
2019-02-09T09:58:28.764Z,8.56
2019-02-09T09:59:28.745Z,8.54
2019-02-09T10:00:28.726Z,8.54
2019-02-09T10:01:28.711Z,8.59
2019-02-09T10:02:36.278Z,8.61
2019-02-09T10:03:28.674Z,8.59
2019-02-09T10:04:28.665Z,8.54
2019-02-09T10:05:28.641Z,8.60
2019-02-09T10:06:28.705Z,8.66
2019-02-09T10:07:28.605Z,8.64
2019-02-09T10:08:28.575Z,8.61
2019-02-09T10:09:28.573Z,8.59
2019-02-09T10:10:28.558Z,8.56
2019-02-09T10:11:28.524Z,8.54
2019-02-09T10:12:28.580Z,8.53
2019-02-09T10:13:28.504Z,8.53
2019-02-09T10:14:28.481Z,8.52
2019-02-09T10:15:28.463Z,8.52
2019-02-09T10:16:28.448Z,8.56
2019-02-09T10:17:28.425Z,8.63
2019-02-09T10:18:28.415Z,8.72
2019-02-09T10:19:28.389Z,8.75
2019-02-09T10:20:28.364Z,8.75
2019-02-09T10:21:28.356Z,8.72
2019-02-09T10:22:28.335Z,8.69
2019-02-09T10:23:28.359Z,8.64
2019-02-09T10:24:28.292Z,8.64
2019-02-09T10:25:28.276Z,8.64
2019-02-09T10:26:28.268Z,8.68
2019-02-09T10:27:28.259Z,8.72
2019-02-09T10:28:28.224Z,8.77
2019-02-09T10:29:28.366Z,8.79
2019-02-09T10:30:28.189Z,8.79
2019-02-09T10:31:28.178Z,8.79
2019-02-09T10:32:28.155Z,8.84
2019-02-09T10:33:28.131Z,8.87
2019-02-09T10:34:28.150Z,8.87
2019-02-09T10:35:28.144Z,8.95
2019-02-09T10:36:28.084Z,9.03
2019-02-09T10:37:28.075Z,9.08
2019-02-09T10:38:28.050Z,9.05
2019-02-09T10:39:28.029Z,8.97
2019-02-09T10:40:28.131Z,8.92
2019-02-09T10:41:29.356Z,8.87
2019-02-09T10:42:27.994Z,8.87
2019-02-09T10:43:27.978Z,8.89
2019-02-09T10:44:27.948Z,8.99
2019-02-09T10:45:27.956Z,9.13
2019-02-09T10:46:27.910Z,9.26
2019-02-09T10:47:27.904Z,9.31
2019-02-09T10:48:27.887Z,9.36
2019-02-09T10:49:27.899Z,9.30
2019-02-09T10:50:27.834Z,9.16
2019-02-09T10:51:27.820Z,9.05
2019-02-09T10:52:27.809Z,8.96
2019-02-09T10:53:27.801Z,8.97
2019-02-09T10:54:27.904Z,8.96
2019-02-09T10:55:27.761Z,8.87
2019-02-09T10:56:27.746Z,8.78
2019-02-09T10:57:27.717Z,8.72
2019-02-09T10:58:27.714Z,8.63
2019-02-09T10:59:27.681Z,8.53
2019-02-09T11:00:27.693Z,8.42
2019-02-09T11:01:27.659Z,8.39
2019-02-09T11:02:27.633Z,8.39
2019-02-09T11:03:27.610Z,8.44
2019-02-09T11:04:27.598Z,8.46
2019-02-09T11:05:27.728Z,8.52
2019-02-09T11:06:27.562Z,8.60
2019-02-09T11:07:27.542Z,8.71
2019-02-09T11:08:27.526Z,8.86
2019-02-09T11:09:27.506Z,8.99
2019-02-09T11:10:27.491Z,9.18
2019-02-09T11:11:27.500Z,9.26
2019-02-09T11:12:27.462Z,9.39
2019-02-09T11:13:27.461Z,9.52
2019-02-09T11:14:27.429Z,9.56
2019-02-09T11:15:27.399Z,9.52
2019-02-09T11:16:27.530Z,9.51
2019-02-09T11:17:27.369Z,9.49
2019-02-09T11:18:27.367Z,9.47
2019-02-09T11:19:27.347Z,9.44
2019-02-09T11:20:27.312Z,9.47
2019-02-09T11:21:27.306Z,9.51
2019-02-09T11:22:27.351Z,9.52
2019-02-09T11:23:27.286Z,9.54
2019-02-09T11:24:27.256Z,9.56
2019-02-09T11:25:27.231Z,9.63
2019-02-09T11:26:27.218Z,9.74
2019-02-09T11:27:27.204Z,9.77
2019-02-09T11:28:27.180Z,9.77
2019-02-09T11:29:27.172Z,9.77
2019-02-09T11:30:27.140Z,9.70
2019-02-09T11:31:27.136Z,9.59
2019-02-09T11:32:27.120Z,9.52
2019-02-09T11:33:27.122Z,9.42
2019-02-09T11:34:27.116Z,9.36
2019-02-09T11:35:27.073Z,9.30
2019-02-09T11:36:27.055Z,9.27
2019-02-09T11:37:27.046Z,9.24
2019-02-09T11:38:27.014Z,9.24
2019-02-09T11:39:27.034Z,9.24
2019-02-09T11:40:26.975Z,9.21
2019-02-09T11:41:26.965Z,9.21
2019-02-09T11:42:26.957Z,9.16
2019-02-09T11:43:26.936Z,9.13
2019-02-09T11:44:26.913Z,9.11
2019-02-09T11:45:26.889Z,9.11
2019-02-09T11:46:26.909Z,9.09
2019-02-09T11:47:26.857Z,9.11
2019-02-09T11:48:26.838Z,9.13
2019-02-09T11:49:26.833Z,9.13
2019-02-09T11:50:26.816Z,9.12
2019-02-09T11:51:26.926Z,9.11
2019-02-09T11:52:26.779Z,9.12
2019-02-09T11:53:26.766Z,9.13
2019-02-09T11:54:26.745Z,9.16
2019-02-09T11:55:26.722Z,9.24
2019-02-09T11:56:26.707Z,9.24
2019-02-09T11:57:26.733Z,9.21
2019-02-09T11:58:26.672Z,9.21
2019-02-09T11:59:26.664Z,9.21
2019-02-09T12:00:26.631Z,9.24
2019-02-09T12:01:26.621Z,9.26
2019-02-09T12:02:26.649Z,9.26
2019-02-09T12:03:26.580Z,9.30
2019-02-09T12:04:26.573Z,9.36
2019-02-09T12:05:26.552Z,9.40
2019-02-09T12:06:26.574Z,9.42
2019-02-09T12:07:26.511Z,9.48
2019-02-09T12:08:26.506Z,9.67
2019-02-09T12:09:26.483Z,9.81
2019-02-09T12:10:26.466Z,9.76
2019-02-09T12:11:26.453Z,9.67
2019-02-09T12:12:26.425Z,9.63
2019-02-09T12:13:26.458Z,9.59
2019-02-09T12:14:26.397Z,9.55
2019-02-09T12:15:26.392Z,9.55
2019-02-09T12:16:26.373Z,9.52
2019-02-09T12:17:26.350Z,9.49
2019-02-09T12:18:26.325Z,9.47
2019-02-09T12:19:26.321Z,9.44
2019-02-09T12:20:26.290Z,9.42
2019-02-09T12:21:26.318Z,9.34
2019-02-09T12:22:26.257Z,9.33
2019-02-09T12:23:26.246Z,9.30
2019-02-09T12:24:26.236Z,9.31
2019-02-09T12:25:26.206Z,9.30
2019-02-09T12:26:26.220Z,9.30
2019-02-09T12:27:26.183Z,9.27
2019-02-09T12:28:26.164Z,9.26
2019-02-09T12:29:26.145Z,9.29
2019-02-09T12:30:26.119Z,9.36
2019-02-09T12:31:26.134Z,9.39
2019-02-09T12:32:26.130Z,9.37
2019-02-09T12:33:26.064Z,9.39
2019-02-09T12:34:26.052Z,9.37
2019-02-09T12:35:26.038Z,9.42
2019-02-09T12:36:26.054Z,9.49
2019-02-09T12:37:26.038Z,9.52
2019-02-09T12:38:26.002Z,9.51
2019-02-09T12:39:25.976Z,9.54
2019-02-09T12:40:25.968Z,9.52
2019-02-09T12:41:25.935Z,9.52
2019-02-09T12:42:26.229Z,9.52
2019-02-09T12:43:25.894Z,9.54
2019-02-09T12:44:25.876Z,9.49
2019-02-09T12:45:25.858Z,9.48
2019-02-09T12:46:25.848Z,9.47
2019-02-09T12:47:25.850Z,9.44
2019-02-09T12:48:25.826Z,9.44
2019-02-09T12:49:25.905Z,9.48
2019-02-09T12:50:25.776Z,9.48
2019-02-09T12:51:25.756Z,9.56
2019-02-09T12:52:25.802Z,9.67
2019-02-09T12:53:25.726Z,9.62
2019-02-09T12:54:25.707Z,9.56
2019-02-09T12:55:25.694Z,9.55
2019-02-09T12:56:25.676Z,9.64
2019-02-09T12:57:25.675Z,9.66
2019-02-09T12:58:25.650Z,9.59
2019-02-09T12:59:25.629Z,9.56
2019-02-09T13:00:25.604Z,9.54
2019-02-09T13:01:25.598Z,9.51
2019-02-09T13:02:25.583Z,9.49
2019-02-09T13:03:31.035Z,9.52
2019-02-09T13:04:25.536Z,9.49
2019-02-09T13:05:25.779Z,9.51
2019-02-09T13:06:25.504Z,9.51
2019-02-09T13:07:25.493Z,9.49
2019-02-09T13:08:25.488Z,9.49
2019-02-09T13:09:25.458Z,9.45
2019-02-09T13:10:25.433Z,9.42
2019-02-09T13:11:25.429Z,9.44
2019-02-09T13:12:25.418Z,9.48
2019-02-09T13:13:25.527Z,9.51
2019-02-09T13:14:25.366Z,9.49
2019-02-09T13:15:25.363Z,9.47
2019-02-09T13:16:25.343Z,9.45
2019-02-09T13:17:25.316Z,9.42
2019-02-09T13:18:25.339Z,9.42